createdAt,value
2018-04-28T00:02:12.891Z,56.80
2018-04-28T00:04:41.194Z,57.00
2018-04-28T00:07:09.256Z,57.00
2018-04-28T00:09:37.618Z,57.20
2018-04-28T00:12:05.196Z,57.20
2018-04-28T00:14:33.692Z,57.10
2018-04-28T00:17:02.980Z,58.00
2018-04-28T00:19:31.266Z,57.40
2018-04-28T00:22:09.825Z,57.50
2018-04-28T00:24:40.069Z,57.50
2018-04-28T00:27:10.129Z,57.50
2018-04-28T00:29:38.458Z,57.70
2018-04-28T00:32:08.991Z,57.60
2018-04-28T00:34:38.968Z,57.60
2018-04-28T00:37:09.005Z,57.90
2018-04-28T00:39:44.265Z,57.90
2018-04-28T00:42:11.869Z,57.90
2018-04-28T00:44:39.445Z,57.90
2018-04-28T00:47:23.507Z,58.00
2018-04-28T00:49:58.686Z,58.00
2018-04-28T00:52:30.100Z,58.10
2018-04-28T00:54:57.670Z,58.20
2018-04-28T00:57:28.775Z,58.40
2018-04-28T00:59:59.997Z,58.40
2018-04-28T01:02:28.468Z,58.40
2018-04-28T01:04:56.031Z,58.50
2018-04-28T01:07:24.509Z,58.50
2018-04-28T01:10:11.754Z,58.50
2018-04-28T01:12:41.257Z,58.70
2018-04-28T01:15:15.360Z,58.70
2018-04-28T01:17:47.496Z,58.20
2018-04-28T01:20:30.671Z,58.80
2018-04-28T01:23:04.564Z,59.00
2018-04-28T01:25:35.767Z,59.00
2018-04-28T01:28:04.316Z,59.20
2018-04-28T01:33:34.128Z,59.20
2018-04-28T01:36:02.469Z,59.30
2018-04-28T01:38:36.865Z,59.40
2018-04-28T01:41:31.384Z,59.50
2018-04-28T01:46:56.480Z,59.50
2018-04-28T01:49:28.443Z,59.80
2018-04-28T01:51:56.786Z,60.00
2018-04-28T01:54:43.802Z,59.90
2018-04-28T01:57:17.315Z,59.90
2018-04-28T01:59:49.576Z,59.80
2018-04-28T02:02:22.422Z,59.80
2018-04-28T02:04:53.988Z,59.90
2018-04-28T02:07:21.907Z,59.80
2018-04-28T02:09:53.185Z,59.90
2018-04-28T02:15:31.373Z,59.90
2018-04-28T02:18:23.834Z,60.00
2018-04-28T02:20:56.345Z,60.10
2018-04-28T02:23:44.592Z,60.00
2018-04-28T02:26:14.104Z,60.30
2018-04-28T02:28:42.505Z,60.20
2018-04-28T02:31:15.944Z,60.40
2018-04-28T02:33:46.081Z,60.70
2018-04-28T02:36:20.609Z,60.70
2018-04-28T02:38:49.072Z,60.70
2018-04-28T02:41:20.665Z,60.70
2018-04-28T02:43:54.242Z,61.00
2018-04-28T02:49:19.961Z,61.00
2018-04-28T02:52:06.111Z,61.40
2018-04-28T02:54:40.389Z,61.60
2018-04-28T02:57:23.395Z,61.70
2018-04-28T02:59:55.572Z,61.90
2018-04-28T03:02:33.965Z,61.70
2018-04-28T03:05:06.710Z,61.80
2018-04-28T03:07:35.084Z,61.80
2018-04-28T03:10:03.587Z,61.90
2018-04-28T03:12:31.299Z,61.90
2018-04-28T03:15:01.392Z,61.80
2018-04-28T03:17:32.727Z,61.80
2018-04-28T03:22:56.080Z,61.80
2018-04-28T03:25:28.488Z,62.00
2018-04-28T03:28:25.809Z,62.00
2018-04-28T03:31:08.135Z,62.20
2018-04-28T03:33:47.484Z,62.30
2018-04-28T03:36:34.554Z,62.40
2018-04-28T03:39:03.830Z,62.50
2018-04-28T03:41:32.072Z,62.50
2018-04-28T03:44:01.453Z,62.60
2018-04-28T03:46:34.977Z,62.60
2018-04-28T03:49:08.435Z,62.70
2018-04-28T03:51:47.730Z,62.70
2018-04-28T03:54:18.028Z,62.90
2018-04-28T03:56:50.794Z,62.90
2018-04-28T03:59:30.730Z,62.80
2018-04-28T04:02:10.187Z,62.90
2018-04-28T04:04:37.726Z,62.80
2018-04-28T04:10:21.507Z,62.80
2018-04-28T04:13:09.754Z,62.90
2018-04-28T04:16:01.170Z,62.90
2018-04-28T04:18:38.824Z,62.90
2018-04-28T04:21:13.304Z,63.00
2018-04-28T04:23:46.795Z,62.90
2018-04-28T04:29:34.067Z,63.00
2018-04-28T04:32:13.685Z,63.00
2018-04-28T04:37:48.256Z,63.10
2018-04-28T04:40:19.626Z,63.10
2018-04-28T04:43:03.463Z,63.20
2018-04-28T04:45:38.915Z,63.20
2018-04-28T04:48:13.321Z,63.10
2018-04-28T04:51:07.605Z,63.10
2018-04-28T04:53:50.680Z,63.10
2018-04-28T04:59:34.615Z,62.90
2018-04-28T05:05:30.234Z,63.10
2018-04-28T05:08:07.239Z,63.10
2018-04-28T05:10:46.581Z,63.00
2018-04-28T05:16:20.749Z,63.00
2018-04-28T05:19:05.901Z,63.10
2018-04-28T05:24:45.133Z,62.60
2018-04-28T05:27:20.460Z,62.70
2018-04-28T05:29:48.845Z,62.50
2018-04-28T05:32:28.092Z,62.40
2018-04-28T05:35:03.355Z,62.40
2018-04-28T05:37:37.637Z,62.20
2018-04-28T05:40:16.734Z,61.90
2018-04-28T05:42:56.873Z,61.90
2018-04-28T05:48:48.078Z,61.50
2018-04-28T05:51:27.516Z,61.50
2018-04-28T05:54:19.187Z,61.40
2018-04-28T06:00:09.874Z,61.10
2018-04-28T06:02:49.374Z,61.20
2018-04-28T06:05:32.265Z,61.10
2018-04-28T06:08:21.439Z,61.00
2018-04-28T06:13:54.627Z,60.80
2018-04-28T06:16:28.818Z,60.90
2018-04-28T06:21:50.207Z,60.50
2018-04-28T06:24:17.945Z,60.70
2018-04-28T06:26:45.548Z,60.40
2018-04-28T06:29:14.484Z,60.30
2018-04-28T06:31:42.061Z,60.30
2018-04-28T06:34:09.667Z,60.10
2018-04-28T06:36:37.208Z,60.20
2018-04-28T06:39:04.851Z,60.20
2018-04-28T06:41:32.405Z,60.20
2018-04-28T06:44:00.019Z,60.10
2018-04-28T06:46:28.475Z,60.00
2018-04-28T06:48:56.055Z,60.00
2018-04-28T06:51:24.362Z,60.00
2018-04-28T06:53:51.949Z,59.90
2018-04-28T06:56:19.601Z,59.80
2018-04-28T06:58:47.163Z,59.90
2018-04-28T07:01:14.760Z,59.70
2018-04-28T07:03:42.346Z,59.60
2018-04-28T07:06:09.919Z,59.50
2018-04-28T07:08:37.453Z,59.50
2018-04-28T07:11:05.868Z,59.40
2018-04-28T07:13:33.597Z,59.40
2018-04-28T07:16:01.958Z,59.30
2018-04-28T07:18:29.536Z,59.30
2018-04-28T07:20:57.839Z,59.20
2018-04-28T07:23:25.401Z,59.10
2018-04-28T07:25:53.025Z,59.10
2018-04-28T07:28:20.549Z,59.00
2018-04-28T07:30:48.142Z,59.00
2018-04-28T07:33:15.724Z,58.90
2018-04-28T07:35:44.059Z,58.80
2018-04-28T07:38:11.700Z,58.90
2018-04-28T07:40:39.673Z,58.80
2018-04-28T07:43:07.259Z,58.70
2018-04-28T07:45:34.840Z,58.70
2018-04-28T07:48:02.425Z,58.70
2018-04-28T07:50:29.986Z,58.70
2018-04-28T07:52:57.644Z,58.60
2018-04-28T07:55:26.029Z,58.60
2018-04-28T07:57:53.684Z,58.50
2018-04-28T08:00:21.349Z,58.60
2018-04-28T08:02:48.855Z,58.60
2018-04-28T08:05:16.940Z,58.50
2018-04-28T08:07:44.747Z,58.50
2018-04-28T08:10:13.121Z,58.40
2018-04-28T08:12:40.681Z,58.40
2018-04-28T08:15:08.315Z,58.40
2018-04-28T08:17:35.913Z,58.50
2018-04-28T08:20:03.615Z,58.40
2018-04-28T08:22:31.282Z,58.30
2018-04-28T08:24:59.745Z,58.20
2018-04-28T08:27:27.373Z,58.10
2018-04-28T08:29:55.894Z,58.30
2018-04-28T08:32:23.428Z,58.30
2018-04-28T08:34:51.094Z,58.40
2018-04-28T08:37:18.823Z,58.40
2018-04-28T08:39:46.416Z,58.60
2018-04-28T08:42:14.033Z,58.40
2018-04-28T08:44:42.909Z,58.30
2018-04-28T08:47:10.499Z,58.20
2018-04-28T08:49:38.068Z,58.20
2018-04-28T08:52:07.273Z,58.00
2018-04-28T08:54:35.805Z,57.70
2018-04-28T08:57:03.387Z,57.70
2018-04-28T08:59:43.835Z,57.80
2018-04-28T09:02:11.399Z,57.70
2018-04-28T09:04:38.975Z,57.70
2018-04-28T09:07:29.435Z,57.60
2018-04-28T09:09:57.026Z,57.40
2018-04-28T09:12:24.608Z,57.30
2018-04-28T09:14:52.169Z,57.30
2018-04-28T09:17:21.409Z,57.30
2018-04-28T09:19:48.938Z,57.30
2018-04-28T09:22:16.529Z,57.20
2018-04-28T09:24:44.121Z,57.10
2018-04-28T09:27:11.956Z,57.00
2018-04-28T09:29:39.517Z,56.90
2018-04-28T09:32:07.060Z,56.80
2018-04-28T09:34:34.896Z,56.80
2018-04-28T09:37:02.480Z,57.30
2018-04-28T09:39:30.047Z,56.60
2018-04-28T09:41:57.637Z,56.20
2018-04-28T09:44:25.511Z,55.90
2018-04-28T09:46:53.066Z,55.60
2018-04-28T09:49:20.615Z,55.70
2018-04-28T09:54:22.123Z,56.00
2018-04-28T09:56:49.756Z,55.90
2018-04-28T09:59:18.174Z,55.90
2018-04-28T10:01:48.151Z,55.80
2018-04-28T10:04:21.296Z,55.70
2018-04-28T10:06:50.085Z,55.20
2018-04-28T10:09:18.396Z,54.70
2018-04-28T10:11:45.919Z,54.70
2018-04-28T10:14:13.485Z,54.70
2018-04-28T10:16:41.394Z,54.70
2018-04-28T10:19:09.008Z,54.50
2018-04-28T10:21:37.470Z,53.60
2018-04-28T10:24:05.018Z,53.60
2018-04-28T10:26:32.558Z,52.90
2018-04-28T10:29:00.604Z,53.10
2018-04-28T10:31:29.125Z,52.70
2018-04-28T10:33:56.810Z,52.40
2018-04-28T10:36:24.326Z,52.30
2018-04-28T10:38:51.901Z,52.20
2018-04-28T10:41:19.466Z,52.40
2018-04-28T10:43:47.124Z,52.50
2018-04-28T10:46:15.569Z,52.30
2018-04-28T10:48:43.217Z,52.20
2018-04-28T10:51:11.535Z,51.70
2018-04-28T10:53:39.172Z,51.70
2018-04-28T10:56:07.342Z,51.70
2018-04-28T10:58:34.897Z,51.50
2018-04-28T11:01:03.374Z,50.50
2018-04-28T11:03:31.277Z,50.40
2018-04-28T11:05:58.861Z,49.70
2018-04-28T11:08:26.409Z,49.60
2018-04-28T11:10:54.430Z,50.20
2018-04-28T11:13:22.910Z,49.00
2018-04-28T11:15:50.464Z,49.00
2018-04-28T11:18:18.093Z,48.70
2018-04-28T11:20:46.291Z,48.80
2018-04-28T11:23:14.845Z,48.70
2018-04-28T11:25:43.160Z,48.60
2018-04-28T11:28:11.342Z,48.80
2018-04-28T11:30:40.364Z,48.50
2018-04-28T11:33:09.289Z,47.30
2018-04-28T11:35:36.843Z,47.20
2018-04-28T11:38:04.505Z,47.10
2018-04-28T11:40:32.769Z,47.00
2018-04-28T11:43:00.685Z,47.00
2018-04-28T11:45:28.266Z,47.30
2018-04-28T11:47:56.575Z,47.50
2018-04-28T11:50:24.936Z,46.90
2018-04-28T11:52:53.554Z,46.80
2018-04-28T11:55:21.099Z,46.60
2018-04-28T11:57:49.650Z,46.90
2018-04-28T12:00:18.031Z,47.00
2018-04-28T12:02:46.192Z,46.60
2018-04-28T12:05:13.766Z,46.40
2018-04-28T12:07:41.476Z,46.00
2018-04-28T12:10:09.109Z,45.90
2018-04-28T12:12:37.415Z,45.80
2018-04-28T12:15:04.999Z,45.90
2018-04-28T12:17:32.577Z,46.10
2018-04-28T12:20:00.165Z,46.20
2018-04-28T12:22:27.741Z,46.20
2018-04-28T12:24:55.303Z,46.20
2018-04-28T12:27:22.845Z,46.20
2018-04-28T12:29:51.581Z,46.30
2018-04-28T12:32:19.097Z,46.20
2018-04-28T12:34:46.664Z,46.10
2018-04-28T12:37:14.210Z,46.10
2018-04-28T12:39:42.632Z,45.80
2018-04-28T12:42:10.164Z,45.60
2018-04-28T12:44:37.791Z,46.40
2018-04-28T12:47:06.185Z,45.40
2018-04-28T12:49:33.758Z,45.30
2018-04-28T12:52:01.284Z,45.40
2018-04-28T12:54:29.579Z,45.50
2018-04-28T12:56:57.213Z,45.50
2018-04-28T12:59:25.542Z,45.00
2018-04-28T13:01:53.163Z,45.00
2018-04-28T13:04:20.689Z,44.70
2018-04-28T13:06:48.942Z,44.60
2018-04-28T13:09:16.502Z,44.80
2018-04-28T13:11:44.154Z,44.70
2018-04-28T13:14:11.733Z,44.70
2018-04-28T13:16:39.285Z,44.30
2018-04-28T13:19:06.858Z,44.10
2018-04-28T13:21:34.384Z,43.80
2018-04-28T13:24:02.238Z,43.60
2018-04-28T13:26:30.450Z,43.30
2018-04-28T13:28:58.001Z,43.20
2018-04-28T13:31:25.595Z,43.00
2018-04-28T13:33:53.188Z,43.00
2018-04-28T13:36:21.480Z,42.90
2018-04-28T13:38:49.047Z,42.90
2018-04-28T13:41:16.889Z,42.70
2018-04-28T13:43:45.206Z,42.70
2018-04-28T13:46:12.795Z,42.70
2018-04-28T13:48:40.387Z,42.60
2018-04-28T13:51:08.254Z,42.60
2018-04-28T13:53:35.814Z,42.70
2018-04-28T13:56:05.341Z,42.50
2018-04-28T13:58:32.902Z,42.40
2018-04-28T14:01:00.674Z,42.00
2018-04-28T14:03:28.236Z,41.70
2018-04-28T14:05:55.782Z,41.70
2018-04-28T14:08:23.358Z,41.60
2018-04-28T14:10:50.981Z,41.10
2018-04-28T14:13:18.829Z,41.10
2018-04-28T14:15:46.444Z,41.00
2018-04-28T14:18:14.198Z,40.80
2018-04-28T14:20:41.778Z,40.90
2018-04-28T14:23:09.344Z,41.00
2018-04-28T14:25:37.086Z,41.10
2018-04-28T14:28:05.185Z,41.00
2018-04-28T14:30:32.826Z,41.00
2018-04-28T14:33:00.371Z,41.00
2018-04-28T14:35:28.182Z,40.80
2018-04-28T14:37:56.223Z,40.60
2018-04-28T14:40:23.825Z,40.50
2018-04-28T14:42:51.381Z,40.70
2018-04-28T14:45:18.923Z,40.60
2018-04-28T14:47:46.512Z,41.10
2018-04-28T14:50:14.023Z,41.20
2018-04-28T14:52:42.443Z,41.40
2018-04-28T14:55:09.964Z,41.50
2018-04-28T14:57:37.538Z,41.60
2018-04-28T15:00:05.168Z,41.80
2018-04-28T15:02:33.938Z,41.80
2018-04-28T15:05:02.307Z,42.10
2018-04-28T15:07:29.902Z,42.10
2018-04-28T15:09:58.190Z,42.20
2018-04-28T15:12:26.055Z,42.10
2018-04-28T15:14:53.596Z,42.10
2018-04-28T15:17:21.889Z,42.20
2018-04-28T15:19:49.457Z,42.20
2018-04-28T15:22:18.251Z,42.40
2018-04-28T15:24:46.606Z,42.60
2018-04-28T15:27:14.185Z,42.80
2018-04-28T15:29:41.780Z,42.80
2018-04-28T15:32:09.676Z,42.90
2018-04-28T15:34:37.955Z,43.00
2018-04-28T15:37:06.448Z,42.90
2018-04-28T15:39:34.748Z,42.90
2018-04-28T15:42:02.860Z,42.90
2018-04-28T15:44:30.434Z,42.90
2018-04-28T15:46:57.967Z,43.00
2018-04-28T15:49:25.525Z,43.10
2018-04-28T15:51:53.091Z,43.10
2018-04-28T15:54:20.640Z,43.80
2018-04-28T15:56:48.220Z,43.10
2018-04-28T15:59:16.771Z,43.10
2018-04-28T16:01:44.320Z,43.10
2018-04-28T16:04:11.897Z,43.30
2018-04-28T16:06:39.434Z,43.50
2018-04-28T16:09:06.978Z,43.40
2018-04-28T16:11:36.125Z,43.40
2018-04-28T16:14:03.770Z,43.30
2018-04-28T16:16:31.343Z,43.30
2018-04-28T16:18:59.551Z,43.10
2018-04-28T16:21:27.082Z,43.10
2018-04-28T16:23:54.667Z,43.30
2018-04-28T16:26:22.240Z,43.40
2018-04-28T16:28:49.784Z,43.40
2018-04-28T16:31:17.630Z,43.40
2018-04-28T16:33:45.224Z,43.50
2018-04-28T16:36:12.857Z,43.60
2018-04-28T16:38:40.448Z,43.80
2018-04-28T16:41:08.000Z,44.20
2018-04-28T16:43:35.894Z,44.30
2018-04-28T16:46:03.450Z,44.40
2018-04-28T16:48:31.746Z,44.80
2018-04-28T16:50:59.369Z,44.70
2018-04-28T16:53:27.717Z,45.00
2018-04-28T16:55:55.270Z,45.30
2018-04-28T16:58:22.841Z,45.60
2018-04-28T17:00:50.638Z,45.90
2018-04-28T17:03:18.194Z,46.30
2018-04-28T17:05:45.829Z,46.50
2018-04-28T17:08:13.443Z,46.70
2018-04-28T17:10:41.930Z,47.10
2018-04-28T17:13:09.455Z,47.10
2018-04-28T17:15:37.036Z,47.30
2018-04-28T17:18:06.403Z,47.70
2018-04-28T17:20:34.059Z,47.60
2018-04-28T17:23:01.622Z,47.80
2018-04-28T17:25:29.183Z,48.00
2018-04-28T17:27:56.758Z,48.20
2018-04-28T17:30:24.316Z,48.50
2018-04-28T17:32:51.846Z,48.70
2018-04-28T17:35:19.407Z,48.80
2018-04-28T17:37:47.470Z,49.00
2018-04-28T17:40:15.030Z,49.20
2018-04-28T17:42:42.602Z,49.30
2018-04-28T17:45:10.352Z,49.70
2018-04-28T17:47:38.022Z,49.80
2018-04-28T17:50:05.580Z,49.90
2018-04-28T17:52:33.114Z,50.20
2018-04-28T17:55:01.300Z,50.40
2018-04-28T17:57:28.837Z,50.40
2018-04-28T17:59:56.397Z,50.60
2018-04-28T18:02:24.721Z,50.90
2018-04-28T18:04:52.277Z,50.90
2018-04-28T18:07:19.867Z,51.10
2018-04-28T18:09:47.410Z,51.30
2018-04-28T18:12:15.173Z,51.40
2018-04-28T18:14:42.906Z,51.50
2018-04-28T18:17:11.505Z,51.60
2018-04-28T18:19:39.094Z,51.80
2018-04-28T18:22:07.374Z,51.90
2018-04-28T18:24:34.941Z,52.00
2018-04-28T18:27:02.490Z,52.30
2018-04-28T18:29:31.432Z,52.60
2018-04-28T18:32:01.963Z,52.50
2018-04-28T18:34:29.711Z,52.80
2018-04-28T18:36:58.057Z,53.30
2018-04-28T18:39:25.645Z,53.30
2018-04-28T18:41:53.426Z,53.40
2018-04-28T18:44:22.636Z,53.50
2018-04-28T18:46:50.231Z,53.60
2018-04-28T18:49:17.787Z,53.80
2018-04-28T18:51:45.418Z,54.00
2018-04-28T18:54:12.898Z,54.20
2018-04-28T18:56:40.503Z,54.10
2018-04-28T18:59:08.585Z,54.20
2018-04-28T19:01:37.347Z,54.50
2018-04-28T19:04:06.611Z,54.60
2018-04-28T19:06:34.153Z,54.80
2018-04-28T19:09:01.746Z,54.90
2018-04-28T19:11:29.493Z,55.00
2018-04-28T19:13:57.235Z,55.00
2018-04-28T19:16:24.842Z,55.10
2018-04-28T19:18:52.401Z,55.40
2018-04-28T19:21:20.701Z,56.00
2018-04-28T19:23:48.275Z,55.50
2018-04-28T19:26:16.675Z,55.60
2018-04-28T19:28:44.243Z,55.60
2018-04-28T19:31:12.931Z,55.70
2018-04-28T19:33:42.926Z,55.80
2018-04-28T19:36:11.286Z,56.10
2018-04-28T19:38:38.828Z,56.10
2018-04-28T19:41:06.602Z,56.10
2018-04-28T19:43:34.368Z,56.20
2018-04-28T19:46:02.896Z,56.10
2018-04-28T19:48:30.505Z,56.20
2018-04-28T19:51:01.503Z,56.40
2018-04-28T19:53:29.582Z,56.40
2018-04-28T19:55:57.938Z,56.50
2018-04-28T19:58:26.252Z,56.50
2018-04-28T20:00:53.866Z,56.40
2018-04-28T20:03:22.290Z,56.50
2018-04-28T20:05:50.536Z,56.50
2018-04-28T20:08:18.847Z,56.50
2018-04-28T20:10:47.573Z,56.50
2018-04-28T20:13:15.950Z,56.50
2018-04-28T20:15:43.651Z,56.50
2018-04-28T20:18:11.192Z,56.60
2018-04-28T20:20:39.819Z,56.60
2018-04-28T20:23:19.314Z,56.60
2018-04-28T20:25:47.016Z,56.60
2018-04-28T20:28:15.164Z,56.50
2018-04-28T20:30:43.457Z,56.70
2018-04-28T20:33:11.069Z,56.70
2018-04-28T20:35:38.635Z,56.60
2018-04-28T20:38:07.783Z,56.70
2018-04-28T20:40:35.380Z,56.70
2018-04-28T20:43:03.012Z,56.60
2018-04-28T20:45:30.571Z,56.70
2018-04-28T20:47:58.138Z,56.80
2018-04-28T21:03:20.766Z,56.70
2018-04-28T21:05:48.308Z,57.30
2018-04-28T21:08:16.570Z,57.40
2018-04-28T21:10:45.195Z,57.40
2018-04-28T21:13:12.747Z,57.30
2018-04-28T21:15:40.327Z,57.20
2018-04-28T21:18:08.081Z,57.10
2018-04-28T21:20:35.814Z,57.00
2018-04-28T21:23:03.694Z,56.90
2018-04-28T21:25:31.266Z,56.80
2018-04-28T21:27:59.138Z,56.70
2018-04-28T21:30:26.681Z,56.70
2018-04-28T21:32:54.240Z,56.70
2018-04-28T21:35:21.860Z,56.70
2018-04-28T21:37:50.842Z,56.70
2018-04-28T21:40:18.439Z,56.60
2018-04-28T21:42:46.028Z,56.70
2018-04-28T21:45:13.584Z,56.60
2018-04-28T21:47:41.109Z,56.60
2018-04-28T21:50:08.729Z,56.90
2018-04-28T21:52:36.263Z,56.80
2018-04-28T21:55:04.729Z,56.90
2018-04-28T21:57:32.338Z,57.00
2018-04-28T21:59:59.963Z,56.90
2018-04-28T22:02:27.516Z,56.90
2018-04-28T22:04:55.951Z,56.90
2018-04-28T22:07:23.499Z,57.00
2018-04-28T22:09:51.063Z,56.90
2018-04-28T22:12:18.872Z,56.80
2018-04-28T22:14:46.379Z,56.80
2018-04-28T22:17:15.144Z,56.80
2018-04-28T22:19:42.714Z,56.80
2018-04-28T22:22:10.255Z,56.80
2018-04-28T22:24:37.831Z,56.70
2018-04-28T22:27:05.426Z,56.60
2018-04-28T22:29:33.070Z,56.70
2018-04-28T22:32:01.723Z,56.60
2018-04-28T22:34:29.282Z,56.60
2018-04-28T22:36:56.829Z,56.50
2018-04-28T22:39:24.568Z,56.50
2018-04-28T22:41:52.873Z,56.50
2018-04-28T22:44:20.431Z,56.50
2018-04-28T22:46:47.954Z,56.40
2018-04-28T22:49:15.888Z,56.40
2018-04-28T22:51:43.966Z,56.30
2018-04-28T22:54:11.547Z,56.30
2018-04-28T22:56:40.621Z,56.20
2018-04-28T22:59:08.669Z,56.20
2018-04-28T23:01:36.215Z,56.30
2018-04-28T23:04:03.781Z,56.20
2018-04-28T23:06:31.338Z,56.10
2018-04-28T23:08:58.901Z,55.90
2018-04-28T23:11:26.622Z,55.70
2018-04-28T23:13:54.176Z,55.40
2018-04-28T23:16:22.618Z,55.40
2018-04-28T23:18:50.178Z,55.20
2018-04-28T23:21:17.721Z,54.90
2018-04-28T23:23:45.246Z,54.50
2018-04-28T23:26:12.807Z,54.30
2018-04-28T23:28:40.329Z,54.20
2018-04-28T23:31:07.887Z,54.30
2018-04-28T23:33:35.541Z,54.10
2018-04-28T23:36:03.071Z,54.00
2018-04-28T23:38:30.624Z,53.90
2018-04-28T23:40:58.944Z,54.00
2018-04-28T23:43:26.515Z,53.90
2018-04-28T23:45:54.067Z,53.40
2018-04-28T23:48:21.638Z,53.60
2018-04-28T23:50:49.976Z,53.60
2018-04-28T23:53:18.052Z,53.40
2018-04-28T23:55:45.971Z,53.30
2018-04-28T23:58:13.522Z,53.10
